Chesterfield, United Kingdom
Current Conditions -  °F | °C
As of 12:50 PM on Friday 19 Dec 2014 (Local Time) from EGCN Reporting Station
Scattered Clouds Scattered Clouds  
Wind Chill: 35°   Ceiling: Unl
Heat Index: 45°   Visibility: 6mi
Dew Point: 36°   Wind: 26mph
Humidity: 71%   Direction: 270°W
Pressure: 29.88"   Gusts: 40mph
Location:  53.26°N, 1.39°W
Report Text: EGCN 191250Z 27023G35KT 9999 SCT027 07/02 Q1012
Loading
Personal Weather Stations






























Interactive Weather Map New forecast layout! Learn more

10-Day Weather Forecast

Advertisements
Track Severe Weather on mobile